createdAt,value
2019-03-08T00:02:17.920Z,3.23
2019-03-08T00:04:48.367Z,3.00
2019-03-08T00:07:19.011Z,2.77
2019-03-08T00:09:49.501Z,2.70
2019-03-08T00:12:20.013Z,2.77
2019-03-08T00:14:50.340Z,2.47
2019-03-08T00:17:20.609Z,3.17
2019-03-08T00:19:50.817Z,3.67
2019-03-08T00:22:21.284Z,2.50
2019-03-08T00:24:51.606Z,4.03
2019-03-08T00:27:21.798Z,2.37
2019-03-08T00:29:52.281Z,2.57
2019-03-08T00:32:22.491Z,3.67
2019-03-08T00:34:53.092Z,2.50
2019-03-08T00:37:24.493Z,2.37
2019-03-08T00:39:54.759Z,3.13
2019-03-08T00:42:25.304Z,2.83
2019-03-08T00:44:55.613Z,3.10
2019-03-08T00:47:25.887Z,2.93
2019-03-08T00:49:56.785Z,3.47
2019-03-08T00:52:27.009Z,3.40
2019-03-08T00:54:57.250Z,2.87
2019-03-08T00:57:27.791Z,3.20
2019-03-08T00:59:57.947Z,3.37
2019-03-08T01:02:28.615Z,3.27
2019-03-08T01:04:58.858Z,3.40
2019-03-08T01:07:29.199Z,3.37
2019-03-08T01:10:00.035Z,3.97
2019-03-08T01:12:30.432Z,3.37
2019-03-08T01:15:00.620Z,3.60
2019-03-08T01:17:30.831Z,3.23
2019-03-08T01:20:01.168Z,4.33
2019-03-08T01:22:31.495Z,4.47
2019-03-08T01:25:02.197Z,4.60
2019-03-08T01:27:32.522Z,4.00
2019-03-08T01:30:02.880Z,4.40
2019-03-08T01:32:33.323Z,3.80
2019-03-08T01:35:04.647Z,3.80
2019-03-08T01:37:35.020Z,5.23
2019-03-08T01:40:06.202Z,3.60
2019-03-08T01:42:36.676Z,3.27
2019-03-08T01:45:07.734Z,3.80
2019-03-08T01:47:38.312Z,3.97
2019-03-08T01:50:08.884Z,4.43
2019-03-08T01:52:39.623Z,3.50
2019-03-08T01:55:10.290Z,3.97
2019-03-08T01:57:40.481Z,4.10
2019-03-08T02:00:14.091Z,5.47
2019-03-08T02:02:44.705Z,4.40
2019-03-08T02:05:16.630Z,4.47
2019-03-08T02:07:47.170Z,4.57
2019-03-08T02:10:17.832Z,5.80
2019-03-08T02:12:48.083Z,5.40
2019-03-08T02:15:19.914Z,4.90
2019-03-08T02:17:50.496Z,5.33
2019-03-08T02:20:21.605Z,4.10
2019-03-08T02:22:51.878Z,4.93
2019-03-08T02:25:22.405Z,5.27
2019-03-08T02:27:52.595Z,4.90
2019-03-08T02:30:22.861Z,4.33
2019-03-08T02:32:54.221Z,4.50
2019-03-08T02:35:24.535Z,4.33
2019-03-08T02:37:55.813Z,4.87
2019-03-08T02:40:31.151Z,4.47
2019-03-08T02:43:01.865Z,3.73
2019-03-08T02:45:32.100Z,4.17
2019-03-08T02:48:02.750Z,3.90
2019-03-08T02:50:34.340Z,3.60
2019-03-08T02:53:05.128Z,3.63
2019-03-08T02:55:36.339Z,3.53
2019-03-08T02:58:06.973Z,3.43
2019-03-08T03:00:47.072Z,3.00
2019-03-08T03:03:18.173Z,3.07
2019-03-08T03:05:48.919Z,3.60
2019-03-08T03:08:19.166Z,3.63
2019-03-08T03:10:49.352Z,5.10
2019-03-08T03:13:19.649Z,4.20
2019-03-08T03:15:50.105Z,4.63
2019-03-08T03:18:20.419Z,4.70
2019-03-08T03:20:51.268Z,4.40
2019-03-08T03:23:21.507Z,4.23
2019-03-08T03:25:52.436Z,4.30
2019-03-08T03:28:22.965Z,3.80
2019-03-08T03:30:53.203Z,4.73
2019-03-08T03:33:23.485Z,3.67
2019-03-08T03:35:53.727Z,4.57
2019-03-08T03:38:24.431Z,3.73
2019-03-08T03:40:54.671Z,4.10
2019-03-08T03:43:25.210Z,4.50
2019-03-08T03:45:55.369Z,3.93
2019-03-08T03:48:25.661Z,4.63
2019-03-08T03:50:55.884Z,4.60
2019-03-08T03:53:26.090Z,4.17
2019-03-08T03:55:56.264Z,4.53
2019-03-08T03:58:26.532Z,4.30
2019-03-08T04:00:56.770Z,3.70
2019-03-08T04:03:27.002Z,4.10
2019-03-08T04:05:57.196Z,4.03
2019-03-08T04:08:27.408Z,3.40
2019-03-08T04:10:58.181Z,3.97
2019-03-08T04:13:28.566Z,4.10
2019-03-08T04:15:58.795Z,3.60
2019-03-08T04:18:28.994Z,3.90
2019-03-08T04:20:59.259Z,3.80
2019-03-08T04:23:29.913Z,4.83
2019-03-08T04:26:00.061Z,4.63
2019-03-08T04:28:30.659Z,4.20
2019-03-08T04:31:00.992Z,4.40
2019-03-08T04:33:31.201Z,4.07
2019-03-08T04:36:01.729Z,4.30
2019-03-08T04:38:31.999Z,4.60
2019-03-08T04:41:02.253Z,3.83
2019-03-08T04:43:32.541Z,4.07
2019-03-08T04:46:02.741Z,4.07
2019-03-08T04:48:33.019Z,4.40
2019-03-08T04:51:03.985Z,3.80
2019-03-08T04:53:34.611Z,4.20
2019-03-08T04:56:04.869Z,3.73
2019-03-08T04:58:36.205Z,4.57
2019-03-08T05:01:06.725Z,4.33
2019-03-08T05:03:37.023Z,4.50
2019-03-08T05:06:07.685Z,4.30
2019-03-08T05:08:37.926Z,4.33
2019-03-08T05:11:09.198Z,3.83
2019-03-08T05:13:39.497Z,4.97
2019-03-08T05:16:09.951Z,4.30
2019-03-08T05:18:40.149Z,4.17
2019-03-08T05:21:10.759Z,4.00
2019-03-08T05:23:41.017Z,4.33
2019-03-08T05:26:11.619Z,3.53
2019-03-08T05:28:42.211Z,3.77
2019-03-08T05:31:12.459Z,4.77
2019-03-08T05:33:42.658Z,3.87
2019-03-08T05:36:12.760Z,3.83
2019-03-08T05:38:43.058Z,5.13
2019-03-08T05:41:13.686Z,3.63
2019-03-08T05:43:43.916Z,3.60
2019-03-08T05:46:14.124Z,4.10
2019-03-08T05:48:44.425Z,3.57
2019-03-08T05:51:14.976Z,2.90
2019-03-08T05:53:45.258Z,4.43
2019-03-08T05:56:15.824Z,4.63
2019-03-08T05:58:46.088Z,3.33
2019-03-08T06:01:16.254Z,3.17
2019-03-08T06:03:46.898Z,4.50
2019-03-08T06:06:17.158Z,4.13
2019-03-08T06:08:47.584Z,4.27
2019-03-08T06:11:17.800Z,3.93
2019-03-08T06:13:48.068Z,4.30
2019-03-08T06:16:18.325Z,3.60
2019-03-08T06:18:48.522Z,4.13
2019-03-08T06:21:18.784Z,4.13
2019-03-08T06:23:49.068Z,3.93
2019-03-08T06:26:19.367Z,4.00
2019-03-08T06:28:49.635Z,4.37
2019-03-08T06:31:19.880Z,3.60
2019-03-08T06:33:50.124Z,3.60
2019-03-08T06:36:20.649Z,3.77
2019-03-08T06:38:51.159Z,3.53
2019-03-08T06:41:21.371Z,2.57
2019-03-08T06:43:51.648Z,2.70
2019-03-08T06:46:21.893Z,2.67
2019-03-08T06:48:52.129Z,2.53
2019-03-08T06:51:22.481Z,2.53
2019-03-08T06:53:52.767Z,2.33
2019-03-08T06:56:22.955Z,2.87
2019-03-08T06:59:08.014Z,2.60
2019-03-08T07:01:40.482Z,2.83
2019-03-08T07:04:11.097Z,3.03
2019-03-08T07:06:41.329Z,2.20
2019-03-08T07:09:12.942Z,4.27
2019-03-08T07:11:43.807Z,2.33
2019-03-08T07:14:14.129Z,3.23
2019-03-08T07:16:44.782Z,3.07
2019-03-08T07:19:14.998Z,3.50
2019-03-08T07:21:57.520Z,2.63
2019-03-08T07:24:37.010Z,2.83
2019-03-08T07:27:21.203Z,3.10
2019-03-08T07:30:21.879Z,2.23
2019-03-08T07:33:12.427Z,2.80
2019-03-08T07:36:04.596Z,2.30
2019-03-08T07:38:46.163Z,3.00
2019-03-08T07:41:32.407Z,2.60
2019-03-08T07:44:21.527Z,2.33
2019-03-08T07:47:04.417Z,3.33
2019-03-08T07:49:56.381Z,2.90
2019-03-08T07:52:38.405Z,2.57
2019-03-08T07:55:18.128Z,2.50
2019-03-08T07:57:58.934Z,3.30
2019-03-08T08:00:54.002Z,2.73
2019-03-08T08:03:43.496Z,2.50
2019-03-08T08:06:27.435Z,2.73
2019-03-08T08:09:15.237Z,2.87
2019-03-08T08:12:10.192Z,2.40
2019-03-08T08:14:57.976Z,2.47
2019-03-08T08:17:41.316Z,3.77
2019-03-08T08:20:30.541Z,3.80
2019-03-08T08:23:09.337Z,4.13
2019-03-08T08:26:07.960Z,2.47
2019-03-08T08:28:51.537Z,3.20
2019-03-08T08:31:40.773Z,2.77
2019-03-08T08:34:42.372Z,2.77
2019-03-08T08:37:50.298Z,2.43
2019-03-08T08:40:38.095Z,2.70
2019-03-08T08:43:30.546Z,2.30
2019-03-08T08:46:08.858Z,3.27
2019-03-08T08:49:00.954Z,2.23
2019-03-08T08:51:43.081Z,2.63
2019-03-08T08:54:26.783Z,2.77
2019-03-08T08:57:15.401Z,2.50
2019-03-08T09:00:10.894Z,2.50
2019-03-08T09:03:06.528Z,2.70
2019-03-08T09:05:50.378Z,2.93
2019-03-08T09:08:37.689Z,3.07
2019-03-08T09:11:26.922Z,2.60
2019-03-08T09:14:03.436Z,3.00
2019-03-08T09:16:52.635Z,2.13
2019-03-08T09:19:51.481Z,2.10
2019-03-08T09:22:46.868Z,2.40
2019-03-08T09:25:34.464Z,2.00
2019-03-08T09:28:39.021Z,2.43
2019-03-08T09:31:31.292Z,2.17
2019-03-08T09:34:32.545Z,2.23
2019-03-08T09:37:13.749Z,2.47
2019-03-08T09:39:56.394Z,2.50
2019-03-08T09:42:51.796Z,1.90
2019-03-08T09:45:47.331Z,1.40
2019-03-08T09:48:37.812Z,1.70
2019-03-08T09:51:15.623Z,2.03
2019-03-08T09:54:10.656Z,1.73
2019-03-08T09:56:56.436Z,1.90
2019-03-08T09:59:31.829Z,1.40
2019-03-08T10:02:11.389Z,1.80
2019-03-08T10:05:00.933Z,1.83
2019-03-08T10:07:56.266Z,1.97
2019-03-08T10:10:34.885Z,2.03
2019-03-08T10:13:36.028Z,1.93
2019-03-08T10:16:20.361Z,2.30
2019-03-08T10:18:57.590Z,1.90
2019-03-08T10:21:45.752Z,2.03
2019-03-08T10:24:31.728Z,1.90
2019-03-08T10:27:21.260Z,2.07
2019-03-08T10:30:18.106Z,2.53
2019-03-08T10:32:57.152Z,1.93
2019-03-08T10:35:40.410Z,1.97
2019-03-08T10:38:32.634Z,2.00
2019-03-08T10:41:21.853Z,4.00
2019-03-08T10:44:08.945Z,2.97
2019-03-08T10:46:57.420Z,2.37
2019-03-08T10:49:55.038Z,2.87
2019-03-08T10:52:30.793Z,2.80
2019-03-08T10:55:22.783Z,3.33
2019-03-08T10:58:14.953Z,3.00
2019-03-08T11:01:10.548Z,2.90
2019-03-08T11:04:00.321Z,2.97
2019-03-08T11:06:38.454Z,3.63
2019-03-08T11:09:39.075Z,2.87
2019-03-08T11:12:34.377Z,3.67
2019-03-08T11:15:12.842Z,3.23
2019-03-08T11:17:53.080Z,2.90
2019-03-08T11:20:36.385Z,3.53
2019-03-08T11:23:35.811Z,3.20
2019-03-08T11:26:32.262Z,3.07
2019-03-08T11:29:24.371Z,3.33
2019-03-08T11:32:28.992Z,2.90
2019-03-08T11:35:16.009Z,3.00
2019-03-08T11:38:20.440Z,3.57
2019-03-08T11:41:07.663Z,3.80
2019-03-08T11:44:00.136Z,3.70
2019-03-08T11:46:39.564Z,3.53
2019-03-08T11:49:28.113Z,2.93
2019-03-08T11:52:20.343Z,2.70
2019-03-08T11:55:15.490Z,2.60
2019-03-08T11:58:03.313Z,2.60
2019-03-08T12:01:08.381Z,2.10
2019-03-08T12:04:06.962Z,3.20
2019-03-08T12:07:02.728Z,2.90
2019-03-08T12:09:47.686Z,3.67
2019-03-08T12:12:41.722Z,3.00
2019-03-08T12:15:50.704Z,3.70
2019-03-08T12:18:38.311Z,3.70
2019-03-08T12:21:27.913Z,2.80
2019-03-08T12:24:07.197Z,3.80
2019-03-08T12:26:59.464Z,5.20
2019-03-08T12:29:48.664Z,4.07
2019-03-08T12:32:43.892Z,4.23
2019-03-08T12:35:51.664Z,5.03
2019-03-08T12:38:44.054Z,3.90
2019-03-08T12:41:32.193Z,4.67
2019-03-08T12:44:19.678Z,3.90
2019-03-08T12:47:09.003Z,4.40
2019-03-08T12:50:04.426Z,3.63
2019-03-08T12:52:45.431Z,2.70
2019-03-08T12:55:33.393Z,3.10
2019-03-08T12:58:21.776Z,2.27
2019-03-08T13:01:17.313Z,2.37
2019-03-08T13:04:09.696Z,2.90
2019-03-08T13:06:58.990Z,2.47
2019-03-08T13:09:38.033Z,2.20
2019-03-08T13:12:08.658Z,2.80
2019-03-08T13:14:39.105Z,2.37
2019-03-08T13:17:09.696Z,2.47
2019-03-08T13:19:40.245Z,2.07
2019-03-08T13:22:10.804Z,1.90
2019-03-08T13:24:41.166Z,1.70
2019-03-08T13:27:11.543Z,1.70
2019-03-08T13:29:41.791Z,2.00
2019-03-08T13:32:12.643Z,1.80
2019-03-08T13:34:43.048Z,1.93
2019-03-08T13:37:13.325Z,2.23
2019-03-08T13:39:43.704Z,1.77
2019-03-08T13:42:13.953Z,1.97
2019-03-08T13:44:44.313Z,2.80
2019-03-08T13:47:14.675Z,2.10
2019-03-08T13:49:45.345Z,2.17
2019-03-08T13:52:15.839Z,2.57
2019-03-08T13:54:46.201Z,1.90
2019-03-08T13:57:17.152Z,3.17
2019-03-08T13:59:47.790Z,1.73
2019-03-08T14:02:18.119Z,2.37
2019-03-08T14:04:48.648Z,1.80
2019-03-08T14:07:19.461Z,1.90
2019-03-08T14:09:49.974Z,1.80
2019-03-08T14:12:20.351Z,1.93
2019-03-08T14:14:52.166Z,1.40
2019-03-08T14:17:22.389Z,2.13
2019-03-08T14:19:52.700Z,1.80
2019-03-08T14:22:23.014Z,1.70
2019-03-08T14:24:53.359Z,2.03
2019-03-08T14:27:24.140Z,2.17
2019-03-08T14:29:55.223Z,1.90
2019-03-08T14:32:26.977Z,1.90
2019-03-08T14:34:57.279Z,2.57
2019-03-08T14:37:27.818Z,2.43
2019-03-08T14:39:58.545Z,1.90
2019-03-08T14:42:37.014Z,1.60
2019-03-08T14:45:22.490Z,2.30
2019-03-08T14:47:55.194Z,2.30
2019-03-08T14:50:25.404Z,1.97
2019-03-08T14:52:56.805Z,1.80
2019-03-08T14:55:28.270Z,2.20
2019-03-08T14:57:59.097Z,1.60
2019-03-08T15:00:31.010Z,1.87
2019-03-08T15:03:01.305Z,2.87
2019-03-08T15:05:32.119Z,1.83
2019-03-08T15:08:03.053Z,1.57
2019-03-08T15:10:39.348Z,1.60
2019-03-08T15:13:06.897Z,1.90
2019-03-08T15:15:37.151Z,1.80
2019-03-08T15:18:07.327Z,1.70
2019-03-08T15:20:37.977Z,2.10
2019-03-08T15:23:08.271Z,1.47
2019-03-08T15:25:38.477Z,1.87
2019-03-08T15:28:08.709Z,1.83
2019-03-08T15:30:38.993Z,2.03
2019-03-08T15:33:09.629Z,2.20
2019-03-08T15:35:39.857Z,1.57
2019-03-08T15:38:10.156Z,1.50
2019-03-08T15:40:40.582Z,1.90
2019-03-08T15:43:13.575Z,1.60
2019-03-08T15:45:44.661Z,1.50
2019-03-08T15:48:15.934Z,2.60
2019-03-08T15:50:47.825Z,1.50
2019-03-08T15:53:20.560Z,1.77
2019-03-08T15:55:53.292Z,1.70
2019-03-08T15:58:22.819Z,1.73
2019-03-08T16:00:53.069Z,1.90
2019-03-08T16:03:23.306Z,1.73
2019-03-08T16:05:53.993Z,2.20
2019-03-08T16:08:24.165Z,1.57
2019-03-08T16:10:54.679Z,2.60
2019-03-08T16:13:25.953Z,1.60
2019-03-08T16:15:56.627Z,2.00
2019-03-08T16:18:27.465Z,1.40
2019-03-08T16:20:57.769Z,2.03
2019-03-08T16:23:28.049Z,2.07
2019-03-08T16:25:58.271Z,1.50
2019-03-08T16:28:28.353Z,2.23
2019-03-08T16:31:17.319Z,2.10
2019-03-08T16:33:50.118Z,1.93
2019-03-08T16:36:32.344Z,2.10
2019-03-08T16:39:12.876Z,2.53
2019-03-08T16:42:05.042Z,1.83
2019-03-08T16:44:54.020Z,2.37
2019-03-08T16:47:36.808Z,2.40
2019-03-08T16:50:22.153Z,2.67
2019-03-08T16:53:06.428Z,2.17
2019-03-08T16:55:57.680Z,2.60
2019-03-08T16:58:46.163Z,2.17
2019-03-08T17:01:30.162Z,2.30
2019-03-08T17:04:24.547Z,2.10
2019-03-08T17:07:14.111Z,2.30
2019-03-08T17:10:04.713Z,2.57
2019-03-08T17:12:53.690Z,2.93
2019-03-08T17:15:41.828Z,2.63
2019-03-08T17:18:24.247Z,2.63
2019-03-08T17:21:10.045Z,2.47
2019-03-08T17:23:59.249Z,2.73
2019-03-08T17:26:51.696Z,3.30
2019-03-08T17:29:41.306Z,3.13
2019-03-08T17:32:26.867Z,2.60
2019-03-08T17:35:13.929Z,2.50
2019-03-08T17:37:53.942Z,2.10
2019-03-08T17:40:41.190Z,2.93
2019-03-08T17:43:21.156Z,3.20
2019-03-08T17:45:58.017Z,4.20
2019-03-08T17:48:59.173Z,2.90
2019-03-08T17:52:00.679Z,3.60
2019-03-08T17:55:05.217Z,4.73
2019-03-08T17:57:48.106Z,3.63
2019-03-08T18:00:40.392Z,2.50
2019-03-08T18:03:20.123Z,3.83
2019-03-08T18:05:56.703Z,3.10
2019-03-08T18:08:43.783Z,2.97
2019-03-08T18:11:48.489Z,3.17
2019-03-08T18:14:34.655Z,2.80
2019-03-08T18:17:23.944Z,3.03
2019-03-08T18:20:25.534Z,3.50
2019-03-08T18:23:08.968Z,2.73
2019-03-08T18:25:58.296Z,2.40
2019-03-08T18:28:41.587Z,2.50
2019-03-08T18:31:42.909Z,3.20
2019-03-08T18:34:47.191Z,2.93
2019-03-08T18:37:54.693Z,3.00
2019-03-08T18:40:41.420Z,2.77
2019-03-08T18:43:33.369Z,3.23
2019-03-08T18:46:21.220Z,2.53
2019-03-08T18:49:03.267Z,3.33
2019-03-08T18:51:52.008Z,3.47
2019-03-08T18:54:41.792Z,2.87
2019-03-08T18:57:30.970Z,2.87
2019-03-08T19:00:26.688Z,3.30
2019-03-08T19:03:19.146Z,2.70
2019-03-08T19:06:08.368Z,3.07
2019-03-08T19:08:54.807Z,3.90
2019-03-08T19:11:35.798Z,2.73
2019-03-08T19:14:24.270Z,3.27
2019-03-08T19:17:14.240Z,3.67
2019-03-08T19:19:52.631Z,3.23
2019-03-08T19:22:33.318Z,2.90
2019-03-08T19:25:28.226Z,3.00
2019-03-08T19:28:23.193Z,3.80
2019-03-08T19:31:11.828Z,3.63
2019-03-08T19:34:19.277Z,3.13
2019-03-08T19:37:03.333Z,3.77
2019-03-08T19:39:51.260Z,4.03
2019-03-08T19:42:49.374Z,2.83
2019-03-08T19:45:44.545Z,3.67
2019-03-08T19:48:22.175Z,3.07
2019-03-08T19:51:20.763Z,3.43
2019-03-08T19:54:16.108Z,3.60
2019-03-08T19:57:04.362Z,3.50
2019-03-08T19:59:52.235Z,3.70
2019-03-08T20:02:41.946Z,4.20
2019-03-08T20:05:34.470Z,4.13
2019-03-08T20:08:30.084Z,4.07
2019-03-08T20:11:34.582Z,3.23
2019-03-08T20:14:29.554Z,3.30
2019-03-08T20:17:19.569Z,3.47
2019-03-08T20:20:07.488Z,3.50
2019-03-08T20:22:45.703Z,4.17
2019-03-08T20:25:28.848Z,4.43
2019-03-08T20:28:05.415Z,4.27
2019-03-08T20:31:06.881Z,4.20
2019-03-08T20:34:14.348Z,4.70
2019-03-08T20:37:03.642Z,4.30
2019-03-08T20:39:55.977Z,3.60
2019-03-08T20:42:42.786Z,3.53
2019-03-08T20:45:41.706Z,3.10
2019-03-08T20:48:12.152Z,4.43
2019-03-08T20:50:42.727Z,3.03
2019-03-08T20:53:13.267Z,3.13
2019-03-08T20:55:44.090Z,3.20
2019-03-08T20:58:14.381Z,3.57
2019-03-08T21:00:45.544Z,3.40
2019-03-08T21:03:21.484Z,4.77
2019-03-08T21:05:51.478Z,3.67
2019-03-08T21:08:21.732Z,4.30
2019-03-08T21:10:52.084Z,4.07
2019-03-08T21:13:22.354Z,2.60
2019-03-08T21:15:52.707Z,2.90
2019-03-08T21:18:23.297Z,3.10
2019-03-08T21:20:53.505Z,3.20
2019-03-08T21:23:23.655Z,2.93
2019-03-08T21:25:53.945Z,2.73
2019-03-08T21:28:24.181Z,2.60
2019-03-08T21:30:54.753Z,3.10
2019-03-08T21:33:25.038Z,3.07
2019-03-08T21:35:56.489Z,2.30
2019-03-08T21:38:26.895Z,2.77
2019-03-08T21:40:57.556Z,2.70
2019-03-08T21:43:28.141Z,2.23
2019-03-08T21:45:59.041Z,2.97
2019-03-08T21:48:30.684Z,2.17
2019-03-08T21:51:00.949Z,2.50
2019-03-08T21:53:32.806Z,2.30
2019-03-08T21:56:03.070Z,2.77
2019-03-08T21:58:33.440Z,2.50
2019-03-08T22:01:04.682Z,2.17
2019-03-08T22:03:34.962Z,2.67
2019-03-08T22:06:05.672Z,2.37
2019-03-08T22:08:37.536Z,3.23
2019-03-08T22:11:20.202Z,2.50
2019-03-08T22:13:50.328Z,2.60
2019-03-08T22:16:20.802Z,2.10
2019-03-08T22:18:51.058Z,2.17
2019-03-08T22:21:21.350Z,2.30
2019-03-08T22:23:52.804Z,3.07
2019-03-08T22:26:22.986Z,2.63
2019-03-08T22:28:53.280Z,2.23
2019-03-08T22:31:23.709Z,2.40
2019-03-08T22:33:53.971Z,2.60
2019-03-08T22:36:25.343Z,2.33
2019-03-08T22:38:55.638Z,1.97
2019-03-08T22:41:25.957Z,2.33
2019-03-08T22:43:56.588Z,2.40
2019-03-08T22:46:26.803Z,2.40
2019-03-08T22:48:57.251Z,2.00
2019-03-08T22:51:28.029Z,2.17
2019-03-08T22:53:58.313Z,1.70
2019-03-08T22:56:28.528Z,2.30
2019-03-08T22:58:58.782Z,2.50
2019-03-08T23:01:40.789Z,2.67
2019-03-08T23:04:12.177Z,2.30
2019-03-08T23:06:42.965Z,2.43
2019-03-08T23:09:13.975Z,2.20
2019-03-08T23:11:45.091Z,2.40
2019-03-08T23:14:15.405Z,2.77
2019-03-08T23:16:45.633Z,2.63
2019-03-08T23:19:16.320Z,2.50
2019-03-08T23:21:46.837Z,2.43
2019-03-08T23:24:17.405Z,2.40
2019-03-08T23:26:58.678Z,2.93
2019-03-08T23:29:32.337Z,2.27
2019-03-08T23:32:07.936Z,2.47
2019-03-08T23:34:38.543Z,2.27
2019-03-08T23:37:09.954Z,2.40
2019-03-08T23:39:40.153Z,2.30
2019-03-08T23:42:11.939Z,2.53
2019-03-08T23:44:42.291Z,2.70
2019-03-08T23:47:12.572Z,2.60
2019-03-08T23:49:43.070Z,3.00
2019-03-08T23:52:13.248Z,2.70
2019-03-08T23:54:43.835Z,2.90
2019-03-08T23:57:14.293Z,2.40
2019-03-08T23:59:44.576Z,2.90
